^^
Station Historical Data
Daily Summary for May 22, 2017 Units:  Metric    English   Both
« Previous Day
Next Day »
Daily Weekly Monthly Yearly Custom
  High: Low: Average:
Temperature: 28.1 °C 19.4 °C 24 °C
Dew Point: 1.2 °C -1.9 °C -0.3 °C
Humidity: 25% 16% 20%
Wind Speed: 22.7km/h 0km/h 5.6km/h
Wind Gust: 25.7km/h - -
Wind- - NNW
Pressure: 1017.8 hPa 1014.4 hPa -
Precipitation: 0 mm    
Historical Graphs
 
 
Tabular Data for May 22, 2017
Time Temperature Dew Point Pressure Wind Wind Speed Wind Gust Humidity Rainfall Rate (Hourly) solar Conditions
08:48 20.7 °C 0 °C 1017.8 hPa NNW 14.3 km/h 20.9 km/h 25% 0 mm 374.0 W/m2
08:56 21.4 °C 0 °C 1017.8 hPa NNW 19.5 km/h 19.5 km/h 24% 0 mm 401.0 W/m2
09:01 21.6 °C 0.2 °C 1017.8 hPa NNW 7.9 km/h 19.3 km/h 24% 0 mm 413.0 W/m2
09:06 21.8 °C -0.3 °C 1017.8 hPa NNW 7.9 km/h 20.9 km/h 23% 0 mm 424.0 W/m2
09:11 22.1 °C 0 °C 1017.8 hPa NNW 11.1 km/h 24.1 km/h 23% 0 mm 436.0 W/m2
09:21 22.3 °C 0.2 °C 1017.8 hPa NNW 7.9 km/h 22.5 km/h 23% 0 mm 459.0 W/m2
09:26 22.5 °C 0.3 °C 1017.8 hPa NNW 7.9 km/h 17.7 km/h 23% 0 mm 473.0 W/m2
09:32 22.6 °C -0.2 °C 1017.8 hPa NNW 6.4 km/h 19.3 km/h 22% 0 mm 483.0 W/m2
09:43 23.1 °C 0.2 °C 1017.8 hPa NNW 6.4 km/h 19.3 km/h 22% 0 mm 504.0 W/m2
10:34 24.1 °C 0.4 °C 1017.5 hPa NNW 17.7 km/h 17.7 km/h 21% 0 mm 584.0 W/m2
10:42 24.2 °C 0.5 °C 1017.5 hPa NNW 7.9 km/h 20.9 km/h 21% 0 mm 594.0 W/m2
10:47 24.2 °C 0.5 °C 1017.2 hPa NNW 19.5 km/h 19.5 km/h 21% 0 mm 601.0 W/m2
10:52 24.5 °C 0.1 °C 1017.2 hPa NNW 20.9 km/h 22.5 km/h 20% 0 mm 603.0 W/m2
10:58 24.6 °C 0.1 °C 1017.2 hPa NNW 7.9 km/h 19.3 km/h 20% 0 mm 610.0 W/m2
11:10 24.9 °C 0.4 °C 1017.2 hPa NNW 11.1 km/h 19.3 km/h 20% 0 mm 613.0 W/m2
11:20 25.2 °C 0.6 °C 1016.8 hPa NNW 14.3 km/h 22.5 km/h 20% 0 mm 621.0 W/m2
11:31 25.7 °C 0.3 °C 1016.8 hPa NNW 13 km/h 20.9 km/h 19% 0 mm 624.0 W/m2
11:41 25.9 °C 0.5 °C 1016.5 hPa NNW 1.4 km/h 20.9 km/h 19% 0 mm 626.0 W/m2
12:09 26.2 °C 0.8 °C 1016.1 hPa NNW 7.9 km/h 19.3 km/h 19% 0 mm 626.0 W/m2
12:23 26.7 °C 1.2 °C 1016.1 hPa Calm   19.3 km/h 19% 0 mm 621.0 W/m2
12:50 27.2 °C 0.8 °C 1015.5 hPa NNW 22.7 km/h 25.7 km/h 18% 0 mm 596.0 W/m2
13:01 27.4 °C 1 °C 1015.1 hPa NNW 7.9 km/h 20.9 km/h 18% 0 mm 584.0 W/m2
13:29 27.6 °C 0.3 °C 1015.1 hPa NNW 6.4 km/h 20.9 km/h 17% 0 mm 547.0 W/m2
13:44 27.9 °C -0.2 °C 1015.1 hPa Calm   20.9 km/h 16% 0 mm 524.0 W/m2
14:20 27.8 °C -0.3 °C 1014.8 hPa Calm     16% 0 mm 448.0 W/m2
15:01 27.9 °C 0.6 °C 1014.4 hPa Calm   9.7 km/h 17% 0 mm 348.0 W/m2
15:31 27.8 °C 0.5 °C 1014.4 hPa NNW 7.9 km/h 12.9 km/h 17% 0 mm 265.0 W/m2
15:44 28.1 °C 0.8 °C 1014.4 hPa Calm   11.3 km/h 17% 0 mm 216.0 W/m2
15:52 27.8 °C 0.5 °C 1014.4 hPa Calm     17% 0 mm 176.0 W/m2
16:01 27.8 °C -0.3 °C 1014.4 hPa NNW 6.4 km/h 17.7 km/h 16% 0 mm 137.0 W/m2
16:06 27.8 °C -0.3 °C 1014.4 hPa NNW 1.4 km/h 12.9 km/h 16% 0 mm 120.0 W/m2
16:11 27.8 °C -0.3 °C 1014.4 hPa NNW 1.4 km/h 1.6 km/h 16% 0 mm 102.0 W/m2
16:17 27.7 °C -0.4 °C 1014.4 hPa Calm   9.7 km/h 16% 0 mm 86.0 W/m2
16:23 27.5 °C -0.6 °C 1014.4 hPa Calm     16% 0 mm 70.0 W/m2
16:35 27.3 °C -0.7 °C 1014.4 hPa Calm   11.3 km/h 16% 0 mm 42.0 W/m2
17:02 26.4 °C -0.6 °C 1014.4 hPa Calm     17% 0 mm 9.0 W/m2
17:13 25.9 °C -1 °C 1014.4 hPa Calm     17% 0 mm 0.0 W/m2
17:20 25.3 °C -0.7 °C 1014.4 hPa Calm     18% 0 mm 0.0 W/m2
17:34 24.9 °C -0.3 °C 1014.8 hPa Calm     19% 0 mm 0.0 W/m2
17:40 24.8 °C -0.4 °C 1014.8 hPa Calm     19% 0 mm 0.0 W/m2
17:59 24.6 °C -0.6 °C 1015.1 hPa Calm     19% 0 mm 0.0 W/m2
18:10 24.6 °C -1.3 °C 1015.1 hPa Calm     18% 0 mm 0.0 W/m2
18:26 22.3 °C -1.8 °C 1015.1 hPa Calm     20% 0 mm 0.0 W/m2
18:42 21.2 °C -1.4 °C 1015.1 hPa Calm     22% 0 mm 0.0 W/m2
19:13 20 °C -1.8 °C 1015.5 hPa Calm     23% 0 mm 0.0 W/m2
19:45 20 °C -1.8 °C 1015.5 hPa NNW 3.2 km/h 3.2 km/h 23% 0 mm 0.0 W/m2
19:59 19.9 °C -1.9 °C 1015.5 hPa NNW 7.9 km/h 8 km/h 23% 0 mm 0.0 W/m2
20:09 19.7 °C -1.4 °C 1015.5 hPa Calm   6.4 km/h 24% 0 mm 0.0 W/m2
20:24 19.5 °C -1.6 °C 1015.5 hPa NNW 9.7 km/h 9.7 km/h 24% 0 mm 0.0 W/m2
20:45 19.6 °C -1.5 °C 1015.8 hPa NNW 1.4 km/h 11.3 km/h 24% 0 mm 0.0 W/m2
21:01 19.6 °C -1 °C 1015.8 hPa NNW 3.2 km/h 9.7 km/h 25% 0 mm 0.0 W/m2
21:15 19.4 °C -1.1 °C 1015.5 hPa NNW 6.4 km/h 12.9 km/h 25% 0 mm 0.0 W/m2
21:28 19.6 °C -1 °C 1015.5 hPa NNW 1.4 km/h 11.3 km/h 25% 0 mm 0.0 W/m2
21:41 19.6 °C -1 °C 1015.5 hPa NNW 3.2 km/h 12.9 km/h 25% 0 mm 0.0 W/m2
21:53 19.4 °C -1.1 °C 1015.8 hPa NNW 6.4 km/h 9.7 km/h 25% 0 mm 0.0 W/m2
22:00 19.4 °C -1.1 °C 1015.8 hPa NNW 3.2 km/h 12.9 km/h 25% 0 mm 0.0 W/m2
Canyon Roadhouse, Fishriver Canyon, Namibia
Compliments of Weather Underground - 1.75 mb